Topeka, Illinois
Current Conditions -  °F | °C
As of 7:54 AM on Saturday 22 Nov 2014 (Local Time) from KPIA Reporting Station
Haze Haze  
Wind Chill: 36°   Ceiling: 1800
Heat Index: 43°   Visibility: 4mi
Dew Point: 38°   Wind: 13mph
Humidity: 82%   Direction: 190°S
Pressure: 30.03"   Gusts: NA
Location:  40.33°N, 89.93°W
Report Text: KPIA 221354Z 19011KT 4SM HZ OVC018 06/03 A3003 RMK AO2 SLP174 T00610033
Loading
Personal Weather Stations






























Interactive Weather Map New forecast layout! Learn more

10-Day Weather Forecast

Advertisements
Track Severe Weather on mobile